Skip to main content

NOAA/GLERL Met Station at Chicago, IL

Previous 5 days (top of hour only)
See also Previous 3 Hours (2 minute increments)
Jump down to Data
Switch to [English][Metric]
Zoom: Click and drag, Pan: shift-click and drag, Unzoom: double-click, Unzoom All




Note: Speed = mean wind during 2-minute period at top of hour,
Gust = max wind during 2-minute period at top of hour,
Peak = max wind during entire hour.
• See also 5-day windrose plot


NOAA/GLERL Met Station at Chicago, IL

Previous 5 days (top of hour only)
See also Previous 3 Hours (2 minute increments)
Jump up to Graphs
Switch to [English][Metric]
                  Wind  Wind  Wind   Air   Dew   Rel
                   Spd   Gst   Dir  Temp    Pt   Hum
YYYY-MM-DD   CDT   kts   kts   deg     F     F     %
2024-05-25 03:00  14.2  17.7   254  69.1  66.5  91.5
2024-05-25 02:00  13.2  14.4   254  70.0  65.8  86.5
2024-05-25 01:00  14.0  17.1   250  71.8  64.9  78.5
2024-05-25 00:00  12.6  16.3   218  71.8  64.6  77.9
2024-05-24 23:00  10.3  11.1   190  71.6  64.6  78.4
2024-05-24 22:00  19.4  21.8   135  71.2  64.2  78.2
2024-05-24 21:00  17.9  20.2   278  73.4  63.6  71.0
2024-05-24 20:00  23.3  25.3   181  71.1  64.0  78.1
2024-05-24 19:00  31.3  32.9   182  73.6  64.7  73.4
2024-05-24 18:00  22.9  25.5   176  72.7  67.8  84.5
2024-05-24 17:00   7.4   8.2   141  66.7  65.3  94.9
2024-05-24 16:00  15.9  17.9   128  65.8  62.4  88.4
2024-05-24 15:00  18.7  21.0   115  66.2  62.3  87.1
2024-05-24 14:00  16.5  17.3    55  65.8  62.7  89.3
2024-05-24 13:00  28.6  31.3   348  72.0  64.9  78.2
2024-05-24 12:00  12.2  12.4   113  73.9  68.3  82.4
2024-05-24 11:00  12.4  13.0   134  74.1  68.9  83.6
2024-05-24 10:00  16.9  17.9   138  70.3  67.1  89.3
2024-05-24 09:00  11.9  13.0   156  69.8  66.2  88.1
2024-05-24 08:00  12.8  13.2   177  68.9  64.7  86.2
2024-05-24 07:00   8.2  10.5   156  68.0  63.2  84.3
2024-05-24 06:00  10.1  11.1   179  68.7  59.6  72.3
2024-05-24 05:00   7.6   8.0   151  68.0  59.1  72.7
2024-05-24 04:00   8.9   9.9   164  70.0  56.6  62.1
2024-05-24 03:00  12.8  13.8   179  70.3  55.2  58.3
2024-05-24 02:00  12.6  13.4   176  70.2  57.2  63.0
2024-05-24 01:00  12.1  12.6   180  69.6  56.2  62.0
2024-05-24 00:00   9.9  11.5   167  67.1  59.0  74.8
2024-05-23 23:00  17.3  17.9   132  68.7  55.7  62.8
2024-05-23 22:00  17.9  18.7   112  68.4  53.6  58.9
2024-05-23 21:00  15.9  16.9   100  67.3  53.5  60.8
2024-05-23 20:00  16.1  16.9    95  67.1  54.7  64.1
2024-05-23 19:00  16.9  18.1    80  67.8  56.6  66.8
2024-05-23 18:00  17.1  17.5    78  69.8  52.5  53.6
2024-05-23 17:00  14.6  15.2    93  68.7  56.5  64.5
2024-05-23 16:00  15.6  15.9    89  69.4  54.0  57.4
2024-05-23 15:00  14.6  15.6    97  69.1  55.3  61.1
2024-05-23 14:00  14.4  14.6    99  68.9  54.8  60.2
2024-05-23 13:00  15.4  15.6    98  70.2  50.7  49.5
2024-05-23 12:00  12.6  12.8   119  70.0  55.7  60.1
2024-05-23 11:00  11.7  11.9   124  71.2  52.0  50.2
2024-05-23 10:00   5.6   5.6    91  72.9  50.9  45.5
2024-05-23 09:00   3.5   4.7   145  73.6  53.2  48.4
2024-05-23 08:00   6.4   6.6   272  70.0  51.9  52.2
2024-05-23 07:00   8.6   9.1   267  68.2  51.9  55.5
2024-05-23 06:00  11.7  12.1   258  69.1  50.6  51.3
2024-05-23 05:00  11.1  12.1   260  69.6  51.4  51.8
2024-05-23 04:00  12.4  13.4   263  69.8  50.8  50.3
2024-05-23 03:00   9.3  10.9   256  70.9  52.1  50.9
2024-05-23 02:00   9.5  10.7   232  71.6  51.3  48.3
2024-05-23 01:00  10.5  11.7   258  72.7  49.2  42.9
2024-05-23 00:00  13.4  15.6   258  73.8  49.3  41.6
2024-05-22 23:00   8.2   9.3   263  74.1  47.4  38.2
2024-05-22 22:00   9.9  11.3   273  74.7  46.8  36.7
2024-05-22 21:00  10.9  11.7   287  75.4  47.2  36.3
2024-05-22 20:00  15.7  19.6   288  75.6  47.1  36.0
2024-05-22 19:00  19.2  24.7   278  76.3  48.4  36.9
2024-05-22 18:00  30.3  32.9   272  77.0  44.3  30.7
2024-05-22 17:00  31.9  34.8   271  77.2  45.4  31.9
2024-05-22 16:00  16.3  23.1   280  75.2  53.4  46.0
2024-05-22 15:00  26.8  32.7   270  74.7  52.8  45.9
2024-05-22 14:00  22.7  28.2   263  72.9  55.9  54.8
2024-05-22 13:00  24.7  29.2   242  72.3  55.4  54.8
2024-05-22 12:00  16.5  18.3   252  71.1  56.4  59.3
2024-05-22 11:00  15.9  20.4   248  69.6  56.5  62.6
2024-05-22 10:00  10.5  15.0   231  67.5  57.2  69.2
2024-05-22 09:00  19.8  21.8   270  66.2  57.9  74.3
2024-05-22 08:00  27.4  31.7   256  66.0  57.4  73.4
2024-05-22 07:00  27.6  31.3   266  66.7  59.6  77.5
2024-05-22 06:00  25.5  30.3   257  69.1  60.5  73.9
2024-05-22 05:00  26.2  29.0   257  71.1  62.2  73.1
2024-05-22 04:00  31.9  37.1   251  73.0  63.5  71.7
2024-05-22 03:00  30.7  36.4   220  78.6  67.5  68.3
2024-05-22 02:00  37.3  43.5   218  82.2  64.5  54.5
2024-05-22 01:00  32.1  37.5   226  84.0  64.9  52.0
2024-05-22 00:00  40.6  45.3   200  82.9  70.4  65.3
2024-05-21 23:00  35.2  39.3   190  82.0  68.9  64.0
2024-05-21 22:00  38.1  42.6   192  83.8  68.6  59.5
2024-05-21 21:00  32.5  34.8   188  83.5  68.6  60.2
2024-05-21 20:00  33.2  36.0   178  83.3  67.9  59.3
2024-05-21 19:00  30.1  33.0   173  83.1  67.8  59.4
2024-05-21 18:00  28.4  34.2   165  83.1  67.5  58.8
2024-05-21 17:00  30.7  34.6   172  84.4  67.3  55.9
2024-05-21 16:00  28.6  30.5   173  86.5  67.8  53.0
2024-05-21 15:00  21.6  24.9   169  81.3  67.9  63.2
2024-05-21 14:00  20.0  22.7   170  80.4  68.6  66.7
2024-05-21 13:00  17.1  19.4   165  80.6  68.8  66.8
2024-05-21 12:00  11.7  13.6   129  70.9  67.5  88.8
2024-05-21 11:00   4.7   5.2    90  66.6  65.0  94.6
2024-05-21 10:00   2.1   3.9   160  66.7  64.5  92.4
2024-05-21 09:00   6.8   7.6   137  64.2  64.8 102.1
2024-05-21 08:00   7.2   8.2    98  60.8  61.4 102.1
2024-05-21 07:00   5.1   5.8    95  60.3  60.8 102.1
2024-05-21 06:00   7.6   8.4   105  61.5  62.1 102.0
2024-05-21 05:00   9.9  11.7   125  61.9  62.4 102.0
2024-05-21 04:00   4.5   5.2   117  62.2  62.8 102.1
2024-05-21 03:00   8.6   9.7   143  62.4  63.0 102.2
2024-05-21 02:00   4.1   4.7   172  63.9  64.4 102.1
2024-05-21 01:00  12.1  13.2    26  64.6  64.2  98.8
2024-05-21 00:00  16.5  17.5    40  63.5  64.1 102.0
2024-05-20 23:00  13.0  13.8    46  65.1  64.9  99.2
2024-05-20 22:00   7.4   8.4   349  74.1  65.5  74.1
2024-05-20 21:00  12.6  13.2   300  80.1  64.2  57.8
2024-05-20 20:00  14.4  16.3   280  81.1  63.7  54.9
2024-05-20 19:00  20.6  23.1   274  83.1  62.4  49.0